Time;durP1;ratioP1;P1;durP2;ratioP2;P2;SDS_P1;SDS_P2;PMS_P1;PMS_P2;Temp;Humidity;BMP_temperature;BMP_pressure;BME280_temperature;BME280_humidity;BME280_pressure;Samples;Min_cycle;Max_cycle;Signal;HPM_P1;HPM_P2
2023/05/02 00:00:15;;;;;;;7.43;6.70;;;;;;;10.03;100.00;153934.47;4994682;28;20883;-76
2023/05/02 00:02:42;;;;;;;8.47;7.07;;;;;;;10.07;100.00;153944.81;5016743;28;20548;-76
2023/05/02 00:05:10;;;;;;;7.83;7.07;;;;;;;10.04;100.00;153937.03;5002173;28;20517;-77
2023/05/02 00:07:36;;;;;;;7.10;6.40;;;;;;;10.04;100.00;153937.03;5004416;28;20453;-77
2023/05/02 00:10:04;;;;;;;6.80;6.10;;;;;;;10.04;100.00;153938.34;5017026;28;20462;-76
2023/05/02 00:12:31;;;;;;;7.97;7.17;;;;;;;9.99;100.00;153924.09;5011428;28;20439;-76
2023/05/02 00:14:57;;;;;;;8.60;6.33;;;;;;;9.99;100.00;153925.38;5022503;28;20739;-77
2023/05/02 00:17:24;;;;;;;7.73;6.90;;;;;;;9.96;100.00;153916.31;5001113;28;20452;-77
2023/05/02 00:19:50;;;;;;;7.57;6.77;;;;;;;9.96;100.00;153916.31;5019606;28;20534;-76
2023/05/02 00:22:18;;;;;;;6.40;5.80;;;;;;;9.94;100.00;153911.16;5006662;28;20775;-76
2023/05/02 00:24:45;;;;;;;6.73;6.13;;;;;;;9.94;100.00;153912.47;5012289;28;20875;-77
2023/05/02 00:27:11;;;;;;;7.30;6.60;;;;;;;9.95;100.00;153915.06;5016442;28;21058;-77
2023/05/02 00:29:38;;;;;;;7.77;6.70;;;;;;;9.92;100.00;153906.00;5000869;28;20513;-76
2023/05/02 00:32:05;;;;;;;7.27;6.57;;;;;;;9.88;100.00;153895.59;5019331;28;20465;-77
2023/05/02 00:34:32;;;;;;;7.20;6.50;;;;;;;9.82;100.00;153882.69;4997240;28;20467;-79
2023/05/02 00:36:59;;;;;;;8.10;7.30;;;;;;;9.81;100.00;153878.81;5014109;28;20978;-76
2023/05/02 00:39:27;;;;;;;8.23;7.40;;;;;;;9.79;100.00;153873.66;5015764;28;20501;-76
2023/05/02 00:41:56;;;;;;;8.23;7.13;;;;;;;9.77;100.00;153869.75;5005105;28;20864;-76
2023/05/02 00:44:23;;;;;;;7.63;6.93;;;;;;;9.72;100.00;153856.81;5009967;28;20456;-77
2023/05/02 00:46:50;;;;;;;6.83;6.13;;;;;;;9.66;100.00;153840.00;5007480;28;20456;-76
2023/05/02 00:49:16;;;;;;;7.40;6.60;;;;;;;9.62;100.00;153829.63;5007553;28;20463;-78
2023/05/02 00:51:43;;;;;;;7.23;6.53;;;;;;;9.56;100.00;153814.09;5000746;28;20448;-76
2023/05/02 00:54:11;;;;;;;6.70;6.00;;;;;;;9.54;100.00;153808.94;5017349;28;20439;-78
2023/05/02 00:56:39;;;;;;;6.60;6.00;;;;;;;9.54;100.00;153808.94;5014956;28;20519;-76
2023/05/02 00:59:05;;;;;;;7.90;6.63;;;;;;;9.53;100.00;153806.38;5009770;28;20942;-77
2023/05/02 01:01:37;;;;;;;7.77;7.00;;;;;;;9.55;100.00;153812.84;5007910;28;20537;-78
2023/05/02 01:04:11;;;;;;;10.43;7.20;;;;;;;9.53;100.00;153807.63;5023364;28;20526;-77
2023/05/02 01:06:47;;;;;;;7.90;7.10;;;;;;;9.52;100.00;153805.06;5009095;28;20479;-77
2023/05/02 01:09:22;;;;;;;7.93;7.13;;;;;;;9.57;100.00;153818.00;5005483;28;20500;-77
2023/05/02 01:11:55;;;;;;;9.57;7.63;;;;;;;9.60;100.00;153824.47;5003544;28;20461;-78
2023/05/02 01:14:23;;;;;;;8.60;7.70;;;;;;;9.61;100.00;153828.34;5003085;28;20458;-78
2023/05/02 01:16:52;;;;;;;8.40;7.40;;;;;;;9.67;100.00;153842.56;5001720;28;20472;-78
2023/05/02 01:19:22;;;;;;;8.17;7.37;;;;;;;9.64;100.00;153836.09;5018033;28;20496;-78
2023/05/02 01:21:49;;;;;;;8.20;7.10;;;;;;;9.64;100.00;153836.09;4996814;28;20488;-77
2023/05/02 01:24:20;;;;;;;8.20;7.33;;;;;;;9.67;100.00;153843.88;5012789;28;20467;-78
2023/05/02 01:26:52;;;;;;;7.77;6.97;;;;;;;9.70;100.00;153850.34;5024450;28;20467;-78
2023/05/02 01:29:22;;;;;;;7.27;6.67;;;;;;;9.68;100.00;153846.47;4994835;28;20436;-78
2023/05/02 01:31:50;;;;;;;8.33;7.53;;;;;;;9.62;100.00;153830.94;4994411;28;20458;-78
2023/05/02 01:34:19;;;;;;;8.10;7.30;;;;;;;9.62;100.00;153830.94;4993108;28;20537;-78
2023/05/02 01:36:47;;;;;;;10.30;7.97;;;;;;;9.59;100.00;153821.88;5003217;28;20462;-78
2023/05/02 01:39:17;;;;;;;8.67;7.50;;;;;;;9.55;100.00;153812.84;4996506;28;20489;-78
2023/05/02 01:41:51;;;;;;;7.70;6.90;;;;;;;9.55;100.00;153811.53;4977959;28;20572;-78
2023/05/02 01:44:20;;;;;;;8.00;7.30;;;;;;;9.52;100.00;153805.06;4995720;28;20541;-78
2023/05/02 01:46:47;;;;;;;8.80;7.90;;;;;;;9.50;100.00;153799.91;4991253;28;20466;-77
2023/05/02 01:49:14;;;;;;;8.97;8.07;;;;;;;9.50;100.00;153798.59;4989073;28;20453;-77
2023/05/02 01:51:44;;;;;;;7.97;7.17;;;;;;;9.44;100.00;153784.38;4994512;28;20456;-77
2023/05/02 01:54:13;;;;;;;7.97;7.17;;;;;;;9.43;100.00;153781.75;5010524;28;20512;-78
2023/05/02 01:56:42;;;;;;;8.77;7.53;;;;;;;9.40;100.00;153774.00;4994668;28;20847;-78
2023/05/02 01:59:11;;;;;;;8.73;7.90;;;;;;;9.35;100.00;153761.06;4987615;28;20510;-77
2023/05/02 02:01:42;;;;;;;8.10;7.33;;;;;;;9.33;100.00;153755.91;4997370;28;20574;-77
2023/05/02 02:04:10;;;;;;;8.60;7.70;;;;;;;9.31;100.00;153750.75;5002543;28;20454;-77
2023/05/02 02:06:37;;;;;;;9.77;8.73;;;;;;;9.29;100.00;153744.28;5007585;28;20885;-78
2023/05/02 02:09:04;;;;;;;8.40;7.50;;;;;;;9.27;100.00;153739.06;4992357;28;20471;-78
2023/05/02 02:11:35;;;;;;;9.40;8.00;;;;;;;9.23;100.00;153730.03;5003849;28;20466;-77
2023/05/02 02:14:06;;;;;;;9.50;8.30;;;;;;;9.18;100.00;153717.13;5004122;28;20436;-78
2023/05/02 02:16:33;;;;;;;8.70;7.53;;;;;;;9.18;100.00;153718.41;4991447;28;21005;-77
2023/05/02 02:19:06;;;;;;;8.80;7.90;;;;;;;9.13;100.00;153704.19;5015270;28;20441;-77
2023/05/02 02:21:34;;;;;;;8.73;7.73;;;;;;;9.11;100.00;153698.97;4981043;28;20541;-77
2023/05/02 02:24:02;;;;;;;8.83;7.77;;;;;;;9.06;100.00;153686.06;5013710;28;20927;-77
2023/05/02 02:26:29;;;;;;;8.20;7.03;;;;;;;9.04;100.00;153680.88;5017856;28;20470;-77
2023/05/02 02:28:56;;;;;;;9.60;7.60;;;;;;;9.01;100.00;153674.44;5008290;28;20458;-77
2023/05/02 02:31:24;;;;;;;9.10;8.17;;;;;;;9.01;100.00;153673.13;5021739;28;20984;-77
2023/05/02 02:33:51;;;;;;;8.67;7.53;;;;;;;9.01;100.00;153673.13;4991151;28;20464;-77
2023/05/02 02:36:23;;;;;;;9.60;8.40;;;;;;;8.99;100.00;153667.97;5019724;28;21255;-77
2023/05/02 02:38:56;;;;;;;9.20;7.70;;;;;;;8.97;100.00;153662.81;5019776;28;20460;-77
2023/05/02 02:41:27;;;;;;;10.30;9.20;;;;;;;8.95;100.00;153657.59;4997139;28;20974;-77
2023/05/02 02:44:00;;;;;;;8.60;7.70;;;;;;;8.94;100.00;153656.34;4992860;28;20578;-77
2023/05/02 02:46:32;;;;;;;9.23;8.33;;;;;;;8.92;100.00;153651.13;4994912;28;20894;-77
2023/05/02 02:49:11;;;;;;;9.17;7.90;;;;;;;8.86;100.00;153635.66;5014094;28;20459;-75
2023/05/02 02:51:44;;;;;;;9.83;8.33;;;;;;;8.82;100.00;153623.97;4991153;28;20454;-78
2023/05/02 02:54:14;;;;;;;9.27;8.27;;;;;;;8.82;100.00;153625.28;5013144;28;20938;-76
2023/05/02 02:56:42;;;;;;;8.70;7.77;;;;;;;8.76;100.00;153608.50;4999631;28;21043;-77
2023/05/02 02:59:14;;;;;;;9.30;8.00;;;;;;;8.73;100.00;153600.72;4999205;28;20910;-77
2023/05/02 03:01:44;;;;;;;9.30;8.40;;;;;;;8.72;100.00;153598.13;5009330;28;20594;-76
2023/05/02 03:04:11;;;;;;;10.93;9.30;;;;;;;8.71;100.00;153595.56;5002704;28;20443;-77
2023/05/02 03:06:39;;;;;;;11.67;8.60;;;;;;;8.68;100.00;153587.81;5013074;28;20457;-75
2023/05/02 03:09:06;;;;;;;9.00;8.00;;;;;;;8.63;100.00;153576.13;4994965;28;21046;-75
2023/05/02 03:11:33;;;;;;;10.83;9.57;;;;;;;8.65;100.00;153581.34;5000624;28;20564;-78
2023/05/02 03:13:59;;;;;;;12.03;10.27;;;;;;;8.66;100.00;153583.91;5004895;28;20451;-75
2023/05/02 03:16:34;;;;;;;11.20;10.00;;;;;;;8.65;100.00;153580.03;4991999;28;20455;-75
2023/05/02 03:19:01;;;;;;;12.30;9.27;;;;;;;8.65;100.00;153580.03;4991116;28;20499;-77
2023/05/02 03:21:30;;;;;;;11.00;9.27;;;;;;;8.65;100.00;153581.34;4990985;28;20990;-75
2023/05/02 03:24:00;;;;;;;10.13;8.93;;;;;;;8.68;100.00;153587.81;4974092;28;20461;-76
2023/05/02 03:26:27;;;;;;;10.20;9.00;;;;;;;8.69;100.00;153590.38;4982662;28;20453;-76
2023/05/02 03:28:54;;;;;;;9.43;8.43;;;;;;;8.76;100.00;153608.50;5006852;28;20472;-75
2023/05/02 03:31:27;;;;;;;10.93;8.93;;;;;;;8.83;100.00;153626.59;5002352;28;20834;-76
2023/05/02 03:33:54;;;;;;;11.40;9.10;;;;;;;8.89;100.00;153643.41;5006008;28;20455;-76
2023/05/02 03:36:21;;;;;;;8.70;7.80;;;;;;;8.96;100.00;153661.50;4990310;28;20472;-76
2023/05/02 03:38:47;;;;;;;10.13;9.13;;;;;;;9.01;100.00;153673.13;4996806;28;20482;-78
2023/05/02 03:41:15;;;;;;;10.23;9.10;;;;;;;9.05;100.00;153684.75;4987449;28;20556;-77
2023/05/02 03:43:43;;;;;;;9.67;8.67;;;;;;;9.11;100.00;153698.97;4993452;28;20471;-75
2023/05/02 03:46:10;;;;;;;8.33;7.50;;;;;;;9.16;100.00;153711.91;5022900;28;20460;-77
2023/05/02 03:48:40;;;;;;;9.47;8.47;;;;;;;9.16;100.00;153711.91;5001693;28;20546;-77
2023/05/02 03:51:08;;;;;;;9.30;8.40;;;;;;;9.22;100.00;153727.44;5009267;28;20454;-78
2023/05/02 03:53:39;;;;;;;9.23;8.20;;;;;;;9.30;100.00;153748.13;5009601;28;20481;-78
2023/05/02 03:56:07;;;;;;;8.60;7.47;;;;;;;9.30;100.00;153748.13;4993566;28;20466;-77
2023/05/02 03:58:45;;;;;;;9.53;8.53;;;;;;;9.31;100.00;153750.75;4988471;28;21072;-77
2023/05/02 04:01:14;;;;;;;9.13;8.13;;;;;;;9.35;100.00;153759.75;4986127;28;20488;-77
2023/05/02 04:03:42;;;;;;;7.80;7.00;;;;;;;9.36;100.00;153762.38;4996667;28;20440;-77
2023/05/02 04:06:11;;;;;;;8.47;7.57;;;;;;;9.37;100.00;153766.22;4995068;28;20495;-77
2023/05/02 04:08:38;;;;;;;9.43;7.80;;;;;;;9.37;100.00;153766.22;5000483;28;20453;-77
2023/05/02 04:11:05;;;;;;;9.10;7.77;;;;;;;9.39;100.00;153771.44;5006333;28;20451;-84
2023/05/02 04:13:31;;;;;;;7.80;6.80;;;;;;;9.40;100.00;153774.00;5033995;28;20509;-84
2023/05/02 04:15:59;;;;;;;9.10;8.10;;;;;;;9.42;100.00;153777.91;5004369;28;20467;-84
2023/05/02 04:18:30;;;;;;;8.80;7.60;;;;;;;9.44;100.00;153784.38;5005818;28;20848;-85
2023/05/02 04:20:57;;;;;;;10.70;8.17;;;;;;;9.45;100.00;153785.69;4989443;28;21103;-84
2023/05/02 04:23:24;;;;;;;10.03;9.03;;;;;;;9.49;100.00;153796.00;4998683;28;20470;-84
2023/05/02 04:25:56;;;;;;;9.70;8.77;;;;;;;9.49;100.00;153797.31;5004246;28;20469;-84
2023/05/02 04:28:29;;;;;;;9.33;8.10;;;;;;;9.49;100.00;153796.00;5004933;28;20449;-84
2023/05/02 04:30:57;;;;;;;11.10;9.70;;;;;;;9.50;100.00;153798.59;4999476;28;20962;-84
2023/05/02 04:33:26;;;;;;;10.17;9.10;;;;;;;9.49;100.00;153797.31;4994047;28;20461;-84
2023/05/02 04:35:54;;;;;;;10.63;9.43;;;;;;;9.49;100.00;153797.31;4992851;28;20520;-84
2023/05/02 04:38:22;;;;;;;9.80;8.80;;;;;;;9.54;100.00;153810.25;4991865;28;20474;-85
2023/05/02 04:40:50;;;;;;;11.77;9.47;;;;;;;9.54;100.00;153810.25;5003745;28;20481;-85
2023/05/02 04:43:17;;;;;;;11.00;9.00;;;;;;;9.55;100.00;153811.53;4990917;28;20656;-84
2023/05/02 04:45:49;;;;;;;13.10;9.40;;;;;;;9.56;100.00;153814.09;5020284;28;20472;-84
2023/05/02 04:48:24;;;;;;;9.43;8.37;;;;;;;9.59;100.00;153821.88;5001848;28;20931;-84
2023/05/02 04:50:52;;;;;;;10.37;9.37;;;;;;;9.59;100.00;153821.88;5008774;28;20470;-84
2023/05/02 04:53:22;;;;;;;10.73;9.63;;;;;;;9.60;100.00;153825.78;5012708;28;21034;-84
2023/05/02 04:55:49;;;;;;;10.67;9.43;;;;;;;9.64;100.00;153836.09;5005029;28;20464;-84
2023/05/02 04:58:15;;;;;;;11.37;10.20;;;;;;;9.65;100.00;153838.72;5006645;28;20491;-84
2023/05/02 05:00:44;;;;;;;11.47;10.37;;;;;;;9.68;100.00;153846.47;5004308;28;20460;-85
2023/05/02 05:03:11;;;;;;;10.47;9.40;;;;;;;9.69;100.00;153849.03;5000735;28;20464;-84
2023/05/02 05:05:37;;;;;;;10.40;9.30;;;;;;;9.71;100.00;153854.25;5005313;28;20580;-84
2023/05/02 05:08:08;;;;;;;10.60;9.50;;;;;;;9.74;100.00;153861.97;5002658;28;20452;-85
2023/05/02 05:10:37;;;;;;;13.63;10.10;;;;;;;9.75;100.00;153864.56;5000735;28;20549;-85
2023/05/02 05:13:04;;;;;;;12.70;10.20;;;;;;;9.74;100.00;153861.97;5010217;28;20506;-85
2023/05/02 05:15:32;;;;;;;10.50;9.50;;;;;;;9.74;100.00;153860.72;4990910;28;20558;-85
2023/05/02 05:18:00;;;;;;;10.13;9.00;;;;;;;9.75;100.00;153864.56;4990593;28;20462;-84
2023/05/02 05:20:27;;;;;;;10.70;9.63;;;;;;;9.76;100.00;153867.19;4989921;28;21006;-85
2023/05/02 05:22:57;;;;;;;12.00;9.53;;;;;;;9.75;100.00;153864.56;5007609;28;20499;-84
2023/05/02 05:25:27;;;;;;;10.97;9.80;;;;;;;9.75;100.00;153864.56;5004634;28;20464;-84
2023/05/02 05:27:55;;;;;;;10.73;9.63;;;;;;;9.79;100.00;153873.66;4989891;28;20801;-84
2023/05/02 05:30:22;;;;;;;11.70;10.30;;;;;;;9.84;100.00;153886.59;4990609;28;20677;-84
2023/05/02 05:32:48;;;;;;;11.07;9.90;;;;;;;9.86;100.00;153890.44;5021281;28;20452;-85
2023/05/02 05:35:15;;;;;;;12.40;11.10;;;;;;;9.89;100.00;153899.53;5001060;28;20871;-84
2023/05/02 05:37:42;;;;;;;13.60;12.07;;;;;;;9.91;100.00;153904.69;5007170;28;20447;-85
2023/05/02 05:40:11;;;;;;;14.23;12.67;;;;;;;9.94;100.00;153912.47;5006641;28;20452;-84
2023/05/02 05:42:42;;;;;;;13.30;11.27;;;;;;;9.97;100.00;153918.91;5004108;28;20913;-82
2023/05/02 05:45:15;;;;;;;12.03;10.73;;;;;;;10.07;100.00;153944.81;4962385;28;20496;-82
2023/05/02 05:47:42;;;;;;;13.53;11.40;;;;;;;10.08;100.00;153948.72;5006462;28;20879;-85
2023/05/02 05:50:10;;;;;;;14.50;12.10;;;;;;;10.11;100.00;153956.44;5004234;28;20456;-85
2023/05/02 05:52:37;;;;;;;13.10;11.70;;;;;;;10.13;100.00;153960.41;4990561;28;20441;-85
2023/05/02 05:55:05;;;;;;;13.77;11.97;;;;;;;10.18;100.00;153973.34;4986546;28;20457;-85
2023/05/02 05:57:32;;;;;;;14.40;10.50;;;;;;;10.28;100.00;154000.50;5018510;28;20960;-85
2023/05/02 06:00:00;;;;;;;13.13;11.73;;;;;;;10.32;100.00;154010.91;4995175;28;20556;-84
2023/05/02 06:02:27;;;;;;;14.23;12.60;;;;;;;10.42;100.00;154035.47;4981390;28;20472;-84
2023/05/02 06:04:55;;;;;;;15.10;11.20;;;;;;;10.44;100.00;154039.34;5002074;28;20556;-85
2023/05/02 06:07:24;;;;;;;14.20;12.37;;;;;;;10.49;100.00;154053.59;4989467;28;20573;-85
2023/05/02 06:09:51;;;;;;;15.40;11.50;;;;;;;10.50;100.00;154056.19;5006400;28;20484;-85
2023/05/02 06:12:18;;;;;;;14.93;12.10;;;;;;;10.58;100.00;154076.91;4992128;28;20456;-84
2023/05/02 06:14:45;;;;;;;14.13;12.47;;;;;;;10.64;100.00;154091.16;4988635;28;20461;-85
2023/05/02 06:17:14;;;;;;;14.20;12.37;;;;;;;10.65;100.00;154095.03;5003299;28;20962;-85
2023/05/02 06:19:40;;;;;;;12.57;11.30;;;;;;;10.67;100.00;154100.19;5002770;28;20464;-85
2023/05/02 06:22:07;;;;;;;14.17;12.67;;;;;;;10.66;100.00;154097.63;4997697;28;20878;-85
2023/05/02 06:24:34;;;;;;;15.77;11.43;;;;;;;10.66;100.00;154096.31;5008527;28;20453;-85
2023/05/02 06:27:01;;;;;;;15.47;13.77;;;;;;;10.66;100.00;154097.63;5018701;28;20470;-85
2023/05/02 06:29:27;;;;;;;15.50;11.90;;;;;;;10.64;100.00;154092.47;5007879;28;20481;-84
2023/05/02 06:31:55;;;;;;;15.17;13.43;;;;;;;10.64;100.00;154092.47;5006842;28;20450;-84
2023/05/02 06:34:23;;;;;;;15.10;13.33;;;;;;;10.67;100.00;154100.19;5006171;28;21025;-84
2023/05/02 06:36:54;;;;;;;16.13;13.40;;;;;;;10.66;100.00;154097.63;4990613;28;20480;-77
2023/05/02 06:39:20;;;;;;;15.73;13.20;;;;;;;10.66;100.00;154097.63;4986048;28;20551;-78
2023/05/02 06:41:48;;;;;;;16.30;14.50;;;;;;;10.76;100.00;154123.53;4997857;28;20864;-77
2023/05/02 06:44:17;;;;;;;15.97;14.27;;;;;;;10.79;100.00;154131.28;4996539;28;20447;-78
2023/05/02 06:46:43;;;;;;;15.07;13.20;;;;;;;10.81;100.00;154136.47;5004587;28;20457;-77
2023/05/02 06:49:10;;;;;;;15.83;14.17;;;;;;;10.85;100.00;154146.84;5023779;28;20477;-77
2023/05/02 06:51:38;;;;;;;16.70;15.00;;;;;;;10.94;100.00;154170.13;5002845;28;20461;-78
2023/05/02 06:54:05;;;;;;;20.10;16.30;;;;;;;10.97;100.00;154177.91;5001912;28;20824;-77
2023/05/02 06:56:32;;;;;;;19.87;15.17;;;;;;;11.01;100.00;154187.00;5005685;28;20461;-78
2023/05/02 06:58:59;;;;;;;18.37;15.10;;;;;;;11.01;100.00;154188.25;5026282;28;20505;-77
2023/05/02 07:01:25;;;;;;;19.20;14.83;;;;;;;11.07;100.00;154201.25;5018886;28;20468;-77
2023/05/02 07:03:52;;;;;;;17.17;14.87;;;;;;;11.13;100.00;154218.06;5002111;28;20871;-78
2023/05/02 07:06:18;;;;;;;18.20;14.83;;;;;;;11.11;100.00;154211.59;5006920;28;20453;-77
2023/05/02 07:08:46;;;;;;;21.63;16.00;;;;;;;11.11;100.00;154211.59;5023391;28;20957;-77
2023/05/02 07:11:13;;;;;;;19.23;16.73;;;;;;;11.14;100.00;154220.66;5001214;28;20461;-77
2023/05/02 07:13:39;;;;;;;16.40;14.50;;;;;;;11.15;100.00;154223.22;5010080;28;20447;-77
2023/05/02 07:16:07;;;;;;;19.07;15.87;;;;;;;11.18;100.00;154229.72;5019685;28;20470;-78
2023/05/02 07:18:33;;;;;;;16.20;14.50;;;;;;;11.19;100.00;154232.31;5006405;28;20454;-77
2023/05/02 07:21:01;;;;;;;17.87;16.07;;;;;;;11.16;100.00;154225.84;5015622;28;20839;-77
2023/05/02 07:23:27;;;;;;;18.17;16.27;;;;;;;11.14;100.00;154219.38;5009891;28;20927;-77
2023/05/02 07:25:55;;;;;;;19.57;16.10;;;;;;;11.21;100.00;154238.78;5017484;28;20464;-77
2023/05/02 07:28:22;;;;;;;16.60;14.80;;;;;;;11.15;100.00;154223.22;5015664;28;20464;-77
2023/05/02 07:30:51;;;;;;;19.07;15.60;;;;;;;11.19;100.00;154232.31;5005125;28;20495;-77
2023/05/02 07:33:18;;;;;;;20.57;16.97;;;;;;;11.21;100.00;154238.78;4999191;28;20437;-77
2023/05/02 07:35:45;;;;;;;18.63;15.23;;;;;;;11.24;100.00;154245.25;5000763;28;20490;-77
2023/05/02 07:38:11;;;;;;;19.67;15.70;;;;;;;11.20;100.00;154234.94;4994274;28;20473;-78
2023/05/02 07:40:38;;;;;;;18.37;15.83;;;;;;;11.24;100.00;154245.25;4999122;28;20470;-78
2023/05/02 07:43:06;;;;;;;18.60;15.77;;;;;;;11.25;100.00;154247.88;4979542;28;20543;-77
2023/05/02 07:45:32;;;;;;;20.33;16.80;;;;;;;11.27;100.00;154253.03;4994818;28;20462;-77
2023/05/02 07:47:59;;;;;;;17.27;15.03;;;;;;;11.34;100.00;154271.16;5014573;28;20515;-77
2023/05/02 07:50:26;;;;;;;19.30;16.50;;;;;;;11.40;100.00;154286.72;5003296;28;20466;-77
2023/05/02 07:52:52;;;;;;;22.17;17.83;;;;;;;11.46;100.00;154302.28;5005905;28;20447;-77
2023/05/02 07:55:19;;;;;;;18.77;16.30;;;;;;;11.46;100.00;154302.28;5021398;28;20985;-77
2023/05/02 07:57:45;;;;;;;22.20;17.50;;;;;;;11.51;100.00;154315.25;5017800;28;20843;-78
2023/05/02 08:00:15;;;;;;;21.53;18.47;;;;;;;11.57;100.00;154332.06;4997223;28;20494;-78
2023/05/02 08:02:42;;;;;;;21.03;17.33;;;;;;;11.63;100.00;154347.63;4996357;28;21053;-77
2023/05/02 08:05:09;;;;;;;21.00;17.30;;;;;;;11.62;100.00;154343.75;4999368;28;20464;-78
2023/05/02 08:07:35;;;;;;;24.17;18.17;;;;;;;11.66;100.00;154352.78;5004540;28;20961;-78
2023/05/02 08:10:02;;;;;;;20.90;18.60;;;;;;;11.71;100.00;154367.09;5018535;28;20458;-78
2023/05/02 08:12:28;;;;;;;25.60;18.80;;;;;;;11.81;100.00;154391.75;5004321;28;20444;-77
2023/05/02 08:14:55;;;;;;;20.67;16.57;;;;;;;11.79;100.00;154387.84;5005019;28;20838;-77
2023/05/02 08:17:22;;;;;;;25.97;18.13;;;;;;;11.82;100.00;154395.63;5004354;28;20498;-77
2023/05/02 08:19:49;;;;;;;24.40;18.83;;;;;;;11.84;100.00;154399.50;4999295;28;20468;-77
2023/05/02 08:22:16;;;;;;;24.77;18.87;;;;;;;11.78;100.00;154385.22;5001628;28;20545;-78
2023/05/02 08:24:42;;;;;;;20.30;17.90;;;;;;;11.82;100.00;154395.63;4997032;28;20825;-84
2023/05/02 08:27:49;;;;;;;24.33;20.20;;;;;;;11.86;100.00;154405.97;5000716;28;20491;-77
2023/05/02 08:30:15;;;;;;;24.07;19.27;;;;;;;11.89;100.00;154413.75;5004583;28;20482;-76
2023/05/02 08:32:44;;;;;;;22.37;19.20;;;;;;;11.92;100.00;154421.53;5015880;28;20491;-76
2023/05/02 08:35:10;;;;;;;22.20;19.33;;;;;;;11.91;100.00;154418.97;5003048;28;20533;-77
2023/05/02 08:37:38;;;;;;;23.93;19.27;;;;;;;11.88;100.00;154411.19;4986397;28;20496;-77
2023/05/02 08:40:06;;;;;;;23.60;19.60;;;;;;;11.89;100.00;154413.75;5000460;28;20975;-77
2023/05/02 08:42:33;;;;;;;25.27;19.33;;;;;;;11.97;100.00;154434.50;5009360;28;20483;-77
2023/05/02 08:45:00;;;;;;;26.07;21.10;;;;;;;12.03;100.00;154450.06;5015318;28;20460;-77
2023/05/02 08:47:27;;;;;;;23.97;20.60;;;;;;;12.05;100.00;154455.25;4999438;28;20460;-77
2023/05/02 08:49:55;;;;;;;25.27;20.07;;;;;;;12.19;100.00;154491.56;5016297;28;20506;-76
2023/05/02 08:52:22;;;;;;;22.97;19.20;;;;;;;12.28;100.00;154512.31;5004661;28;20457;-76
2023/05/02 08:54:50;;;;;;;22.27;18.90;;;;;;;12.40;100.00;154544.69;4994027;28;20464;-76
2023/05/02 08:57:17;;;;;;;23.93;21.03;;;;;;;12.37;100.00;154536.91;5003210;28;20479;-76
2023/05/02 08:59:43;;;;;;;24.67;20.10;;;;;;;12.49;100.00;154568.06;4997249;28;20472;-76
2023/05/02 09:02:29;;;;;;;24.70;17.70;;;;;;;12.62;99.12;154600.47;4993650;28;20483;-76
2023/05/02 09:05:00;;;;;;;25.17;18.97;;;;;;;12.73;99.24;154629.00;4993088;28;20472;-76
2023/05/02 09:07:27;;;;;;;23.80;18.60;;;;;;;12.81;98.58;154649.75;5012784;28;20910;-76
2023/05/02 09:09:54;;;;;;;23.00;18.23;;;;;;;12.86;95.12;154662.72;4994299;28;20820;-76
2023/05/02 09:12:25;;;;;;;20.03;17.43;;;;;;;12.90;95.60;154673.09;5014688;28;20461;-76
2023/05/02 09:15:10;;;;;;;21.23;18.77;;;;;;;12.89;98.43;154670.53;4997729;28;20905;-76
2023/05/02 09:17:41;;;;;;;23.73;17.97;;;;;;;12.93;100.00;154680.88;4999237;28;20483;-76
2023/05/02 09:20:10;;;;;;;22.70;19.40;;;;;;;13.03;97.62;154705.50;4998958;28;20861;-76
2023/05/02 09:22:37;;;;;;;21.10;18.43;;;;;;;13.10;97.85;154725.06;4997717;28;20484;-76
2023/05/02 09:25:04;;;;;;;22.10;17.40;;;;;;;13.17;94.71;154741.91;4994509;28;20453;-76
2023/05/02 09:27:48;;;;;;;21.27;17.70;;;;;;;13.22;91.71;154756.19;4999926;28;20531;-77
2023/05/02 09:30:19;;;;;;;21.50;17.97;;;;;;;13.30;96.63;154776.94;5000972;28;20528;-76
2023/05/02 09:32:46;;;;;;;21.97;18.30;;;;;;;13.35;96.52;154788.59;5021734;28;20552;-77
2023/05/02 09:35:22;;;;;;;21.27;17.77;;;;;;;13.48;93.48;154821.03;5008690;28;20436;-76
2023/05/02 09:37:52;;;;;;;21.93;18.70;;;;;;;13.63;96.10;154860.00;5027293;28;20939;-76
2023/05/02 09:40:19;;;;;;;20.07;17.27;;;;;;;13.77;97.31;154896.31;4993256;28;20567;-76
2023/05/02 09:42:46;;;;;;;21.27;18.30;;;;;;;13.81;97.34;154906.72;5012341;28;20472;-76
2023/05/02 09:45:20;;;;;;;19.23;16.60;;;;;;;13.86;91.21;154919.69;5008197;28;20456;-76
2023/05/02 09:47:47;;;;;;;19.93;16.57;;;;;;;13.88;94.92;154924.88;5014500;28;20445;-76
2023/05/02 09:50:32;;;;;;;19.90;17.73;;;;;;;13.90;91.86;154930.06;5016326;28;20489;-76
2023/05/02 09:53:02;;;;;;;20.67;17.97;;;;;;;13.98;93.87;154950.81;5012407;28;20440;-76
2023/05/02 09:55:29;;;;;;;19.93;17.37;;;;;;;14.04;95.64;154966.41;5001263;28;20454;-76
2023/05/02 09:57:55;;;;;;;21.40;17.60;;;;;;;14.02;95.79;154961.25;4999352;28;20888;-75
2023/05/02 10:00:23;;;;;;;20.33;17.50;;;;;;;14.00;92.92;154956.06;4995488;28;20469;-75
2023/05/02 10:02:50;;;;;;;22.30;19.20;;;;;;;13.99;90.44;154954.75;5010416;28;20512;-75
2023/05/02 10:05:17;;;;;;;20.73;17.70;;;;;;;14.09;91.66;154979.41;5023668;28;20457;-76
2023/05/02 10:07:45;;;;;;;23.47;18.73;;;;;;;14.24;92.54;155018.38;4999931;28;21268;-76
2023/05/02 10:10:14;;;;;;;22.00;17.73;;;;;;;14.31;86.71;155036.59;5010228;28;20470;-76
2023/05/02 10:12:41;;;;;;;22.70;20.10;;;;;;;14.43;89.21;155066.44;5008849;28;20973;-76
2023/05/02 10:15:10;;;;;;;23.07;19.70;;;;;;;14.56;91.34;155101.50;5021615;28;20467;-76
2023/05/02 10:17:41;;;;;;;20.77;18.47;;;;;;;14.59;91.58;155109.31;5005617;28;20513;-76
2023/05/02 10:20:10;;;;;;;27.73;18.80;;;;;;;14.53;90.95;155093.72;5011376;28;20481;-76
2023/05/02 10:22:36;;;;;;;19.23;17.20;;;;;;;14.52;89.83;155091.16;5002008;28;20609;-76
2023/05/02 10:25:05;;;;;;;21.90;18.90;;;;;;;14.66;89.40;155124.91;5021480;28;20516;-76
2023/05/02 10:27:32;;;;;;;22.17;19.30;;;;;;;14.74;88.07;155145.69;5002551;28;20446;-76
2023/05/02 10:30:00;;;;;;;21.90;18.87;;;;;;;14.79;82.88;155158.69;4996791;28;20456;-76
2023/05/02 10:32:28;;;;;;;20.00;17.70;;;;;;;14.71;84.19;155137.91;4994407;28;20512;-78
2023/05/02 10:34:56;;;;;;;22.17;19.70;;;;;;;14.49;84.17;155083.34;5006830;28;20465;-76
2023/05/02 10:37:23;;;;;;;25.83;19.70;;;;;;;14.37;84.97;155050.88;5012105;28;20470;-78
2023/05/02 10:39:50;;;;;;;22.37;18.50;;;;;;;14.30;84.57;155033.94;5013606;28;20545;-78
2023/05/02 10:42:20;;;;;;;20.27;17.80;;;;;;;14.31;84.51;155036.59;5006348;28;20444;-78
2023/05/02 10:44:47;;;;;;;21.50;17.00;;;;;;;14.38;84.05;155054.75;5024847;28;20485;-75
2023/05/02 10:47:20;;;;;;;22.77;16.60;;;;;;;14.49;85.21;155082.03;5010322;28;20988;-76
2023/05/02 10:49:51;;;;;;;18.80;15.93;;;;;;;14.59;84.52;155109.31;5024688;28;20817;-76
2023/05/02 10:52:30;;;;;;;18.07;14.53;;;;;;;14.85;78.99;155175.53;5000602;28;20458;-76
2023/05/02 10:55:20;;;;;;;23.10;16.97;;;;;;;14.83;81.45;155169.06;5015373;28;20465;-76
2023/05/02 10:58:23;;;;;;;19.00;15.60;;;;;;;14.83;77.15;155169.06;5000404;28;20536;-77
2023/05/02 11:00:50;;;;;;;19.03;17.03;;;;;;;14.88;80.16;155182.09;4998010;28;20533;-76
2023/05/02 11:03:50;;;;;;;19.27;16.10;;;;;;;14.88;79.51;155182.09;5017477;28;20490;-77
2023/05/02 11:06:16;;;;;;;17.80;16.00;;;;;;;15.14;81.21;155249.66;5004009;28;20529;-77
2023/05/02 11:08:43;;;;;;;18.20;16.30;;;;;;;15.35;83.74;155304.22;5001474;28;20462;-77
2023/05/02 11:11:38;;;;;;;19.90;16.33;;;;;;;15.35;76.56;155304.22;4999676;28;20463;-77
2023/05/02 11:14:06;;;;;;;17.20;14.67;;;;;;;15.27;78.46;155282.13;5006529;28;20445;-77
2023/05/02 11:17:06;;;;;;;20.87;17.67;;;;;;;15.32;76.64;155296.41;5004206;28;20986;-76
2023/05/02 11:20:06;;;;;;;19.27;17.27;;;;;;;15.12;76.38;155245.72;5006700;28;20467;-76
2023/05/02 11:22:32;;;;;;;18.07;16.17;;;;;;;14.95;77.17;155200.25;4991670;28;20565;-77